Terminal Aerodrome Forecast
Issued by NWS Portland, OR

Home | Current Version | Previous Version | Text Only | Print | Product List | Glossary On
Versions: 1 2 3 4 5 6 7 8 9 10 11 12 13 14 15 16 17 18 19 20 21 22 23 24 25 26 27 28 29 30
000
FTUS46 KPQR 240520
TAFAST
TAF
KAST 240520Z 2406/2506 VRB03KT P6SM SCT030
     FM241200 VRB03KT P6SM BKN015 OVC025
     FM241800 31007KT P6SM SCT015 BKN025
     FM242200 31012KT P6SM SCT025
     FM250300 31009KT P6SM BKN025=

USA.gov is the U.S. government's official web portal to all federal, state and local government web resources and services.